sensor_id;sensor_type;location;lat;lon;timestamp;temperature;humidity
49124;DHT22;48506;48.202;16.274;2023-04-23T00:01:27;14.50;78.90
49124;DHT22;48506;48.202;16.274;2023-04-23T00:03:56;14.40;79.00
49124;DHT22;48506;48.202;16.274;2023-04-23T00:06:23;14.40;79.20
49124;DHT22;48506;48.202;16.274;2023-04-23T00:08:53;14.40;79.00
49124;DHT22;48506;48.202;16.274;2023-04-23T00:11:20;14.40;78.90
49124;DHT22;48506;48.202;16.274;2023-04-23T00:13:46;14.40;79.20
49124;DHT22;48506;48.202;16.274;2023-04-23T00:16:14;14.40;79.00
49124;DHT22;48506;48.202;16.274;2023-04-23T00:18:40;14.40;78.90
49124;DHT22;48506;48.202;16.274;2023-04-23T00:21:06;14.40;79.00
49124;DHT22;48506;48.202;16.274;2023-04-23T00:23:33;14.40;79.10
49124;DHT22;48506;48.202;16.274;2023-04-23T00:25:59;14.40;79.30
49124;DHT22;48506;48.202;16.274;2023-04-23T00:28:25;14.40;79.30
49124;DHT22;48506;48.202;16.274;2023-04-23T00:30:51;14.40;79.10
49124;DHT22;48506;48.202;16.274;2023-04-23T00:33:17;14.40;78.90
49124;DHT22;48506;48.202;16.274;2023-04-23T00:35:43;14.40;79.20
49124;DHT22;48506;48.202;16.274;2023-04-23T00:38:09;14.40;79.30
49124;DHT22;48506;48.202;16.274;2023-04-23T00:40:35;14.40;79.40
49124;DHT22;48506;48.202;16.274;2023-04-23T00:43:01;14.40;79.40
49124;DHT22;48506;48.202;16.274;2023-04-23T00:45:27;14.40;80.20
49124;DHT22;48506;48.202;16.274;2023-04-23T00:47:53;14.40;79.50
49124;DHT22;48506;48.202;16.274;2023-04-23T00:50:20;14.30;79.60
49124;DHT22;48506;48.202;16.274;2023-04-23T00:52:46;14.30;79.60
49124;DHT22;48506;48.202;16.274;2023-04-23T00:55:12;14.30;79.80
49124;DHT22;48506;48.202;16.274;2023-04-23T00:57:38;14.20;79.80
49124;DHT22;48506;48.202;16.274;2023-04-23T01:00:06;14.20;79.60
49124;DHT22;48506;48.202;16.274;2023-04-23T01:02:34;14.20;79.70
49124;DHT22;48506;48.202;16.274;2023-04-23T01:05:03;14.30;79.70
49124;DHT22;48506;48.202;16.274;2023-04-23T01:07:32;14.20;80.10
49124;DHT22;48506;48.202;16.274;2023-04-23T01:09:58;14.30;80.00
49124;DHT22;48506;48.202;16.274;2023-04-23T01:12:25;14.20;79.70
49124;DHT22;48506;48.202;16.274;2023-04-23T01:14:52;14.20;79.80
49124;DHT22;48506;48.202;16.274;2023-04-23T01:17:18;14.20;79.90
49124;DHT22;48506;48.202;16.274;2023-04-23T01:19:44;14.20;80.10
49124;DHT22;48506;48.202;16.274;2023-04-23T01:22:12;14.10;80.20
49124;DHT22;48506;48.202;16.274;2023-04-23T01:24:39;14.00;80.60
49124;DHT22;48506;48.202;16.274;2023-04-23T01:27:08;14.00;81.20
49124;DHT22;48506;48.202;16.274;2023-04-23T01:29:34;13.90;82.30
49124;DHT22;48506;48.202;16.274;2023-04-23T01:32:02;13.80;81.80
49124;DHT22;48506;48.202;16.274;2023-04-23T01:34:29;13.80;82.00
49124;DHT22;48506;48.202;16.274;2023-04-23T01:36:57;13.70;82.40
49124;DHT22;48506;48.202;16.274;2023-04-23T01:39:24;13.70;82.60
49124;DHT22;48506;48.202;16.274;2023-04-23T01:41:52;13.60;82.50
49124;DHT22;48506;48.202;16.274;2023-04-23T01:44:18;13.50;83.10
49124;DHT22;48506;48.202;16.274;2023-04-23T01:46:44;13.50;83.40
49124;DHT22;48506;48.202;16.274;2023-04-23T01:49:11;13.40;83.50
49124;DHT22;48506;48.202;16.274;2023-04-23T01:51:38;13.40;83.90
49124;DHT22;48506;48.202;16.274;2023-04-23T01:54:04;13.30;84.00
49124;DHT22;48506;48.202;16.274;2023-04-23T01:56:30;13.20;84.20
49124;DHT22;48506;48.202;16.274;2023-04-23T01:58:57;13.10;85.20
49124;DHT22;48506;48.202;16.274;2023-04-23T02:01:23;13.00;85.90
49124;DHT22;48506;48.202;16.274;2023-04-23T02:03:50;12.90;85.90
49124;DHT22;48506;48.202;16.274;2023-04-23T02:06:16;12.80;86.10
49124;DHT22;48506;48.202;16.274;2023-04-23T02:08:42;12.80;86.70
49124;DHT22;48506;48.202;16.274;2023-04-23T02:11:08;12.80;85.90
49124;DHT22;48506;48.202;16.274;2023-04-23T02:13:34;12.80;86.10
49124;DHT22;48506;48.202;16.274;2023-04-23T02:16:00;12.80;86.30
49124;DHT22;48506;48.202;16.274;2023-04-23T02:18:26;12.80;86.10
49124;DHT22;48506;48.202;16.274;2023-04-23T02:20:53;12.80;86.20
49124;DHT22;48506;48.202;16.274;2023-04-23T02:23:18;12.70;86.40
49124;DHT22;48506;48.202;16.274;2023-04-23T02:25:44;12.70;86.60
49124;DHT22;48506;48.202;16.274;2023-04-23T02:28:10;12.60;87.20
49124;DHT22;48506;48.202;16.274;2023-04-23T02:30:38;12.50;88.30
49124;DHT22;48506;48.202;16.274;2023-04-23T02:33:11;12.40;88.60
49124;DHT22;48506;48.202;16.274;2023-04-23T02:35:37;12.40;88.60
49124;DHT22;48506;48.202;16.274;2023-04-23T02:38:03;12.20;88.80
49124;DHT22;48506;48.202;16.274;2023-04-23T02:40:29;12.10;89.70
49124;DHT22;48506;48.202;16.274;2023-04-23T02:42:56;12.10;90.10
49124;DHT22;48506;48.202;16.274;2023-04-23T02:45:22;12.00;90.20
49124;DHT22;48506;48.202;16.274;2023-04-23T02:47:47;11.90;90.60
49124;DHT22;48506;48.202;16.274;2023-04-23T02:50:13;11.90;90.60
49124;DHT22;48506;48.202;16.274;2023-04-23T02:52:39;11.80;90.60
49124;DHT22;48506;48.202;16.274;2023-04-23T02:55:06;11.80;90.80
49124;DHT22;48506;48.202;16.274;2023-04-23T02:57:34;11.70;90.90
49124;DHT22;48506;48.202;16.274;2023-04-23T03:00:00;11.60;91.00
49124;DHT22;48506;48.202;16.274;2023-04-23T03:02:26;11.60;91.00
49124;DHT22;48506;48.202;16.274;2023-04-23T03:04:52;11.60;91.30
49124;DHT22;48506;48.202;16.274;2023-04-23T03:07:18;11.60;91.40
49124;DHT22;48506;48.202;16.274;2023-04-23T03:09:44;11.50;91.40
49124;DHT22;48506;48.202;16.274;2023-04-23T03:12:10;11.40;91.60
49124;DHT22;48506;48.202;16.274;2023-04-23T03:14:36;11.40;91.60
49124;DHT22;48506;48.202;16.274;2023-04-23T03:17:01;11.30;91.70
49124;DHT22;48506;48.202;16.274;2023-04-23T03:19:27;11.20;91.90
49124;DHT22;48506;48.202;16.274;2023-04-23T03:21:55;11.10;92.10
49124;DHT22;48506;48.202;16.274;2023-04-23T03:24:21;11.10;92.20
49124;DHT22;48506;48.202;16.274;2023-04-23T03:26:47;11.10;92.30
49124;DHT22;48506;48.202;16.274;2023-04-23T03:29:13;11.00;92.50
49124;DHT22;48506;48.202;16.274;2023-04-23T03:31:39;11.00;92.70
49124;DHT22;48506;48.202;16.274;2023-04-23T03:34:05;10.90;92.80
49124;DHT22;48506;48.202;16.274;2023-04-23T03:36:31;10.90;92.90
49124;DHT22;48506;48.202;16.274;2023-04-23T03:38:57;10.90;93.00
49124;DHT22;48506;48.202;16.274;2023-04-23T03:41:23;10.90;93.20
49124;DHT22;48506;48.202;16.274;2023-04-23T03:43:49;10.90;93.20
49124;DHT22;48506;48.202;16.274;2023-04-23T03:46:14;10.90;93.30
49124;DHT22;48506;48.202;16.274;2023-04-23T03:48:40;10.80;93.30
49124;DHT22;48506;48.202;16.274;2023-04-23T03:51:06;10.90;93.40
49124;DHT22;48506;48.202;16.274;2023-04-23T03:53:32;10.80;93.50
49124;DHT22;48506;48.202;16.274;2023-04-23T03:55:59;10.90;93.60
49124;DHT22;48506;48.202;16.274;2023-04-23T03:58:25;10.80;93.50
49124;DHT22;48506;48.202;16.274;2023-04-23T04:00:51;10.80;93.60
49124;DHT22;48506;48.202;16.274;2023-04-23T04:03:17;10.80;93.80
49124;DHT22;48506;48.202;16.274;2023-04-23T04:05:43;10.80;93.70
49124;DHT22;48506;48.202;16.274;2023-04-23T04:08:09;10.80;93.90
49124;DHT22;48506;48.202;16.274;2023-04-23T04:10:36;10.70;94.00
49124;DHT22;48506;48.202;16.274;2023-04-23T04:13:01;10.70;94.10
49124;DHT22;48506;48.202;16.274;2023-04-23T04:15:27;10.70;94.30
49124;DHT22;48506;48.202;16.274;2023-04-23T04:17:53;10.70;94.40
49124;DHT22;48506;48.202;16.274;2023-04-23T04:20:19;10.70;94.50
49124;DHT22;48506;48.202;16.274;2023-04-23T04:22:45;10.70;94.50
49124;DHT22;48506;48.202;16.274;2023-04-23T04:25:11;10.70;94.50
49124;DHT22;48506;48.202;16.274;2023-04-23T04:27:37;10.70;94.70
49124;DHT22;48506;48.202;16.274;2023-04-23T04:30:04;10.70;94.60
49124;DHT22;48506;48.202;16.274;2023-04-23T04:32:31;10.70;94.70
49124;DHT22;48506;48.202;16.274;2023-04-23T04:34:57;10.70;94.80
49124;DHT22;48506;48.202;16.274;2023-04-23T04:37:23;10.70;94.90
49124;DHT22;48506;48.202;16.274;2023-04-23T04:39:49;10.70;95.00
49124;DHT22;48506;48.202;16.274;2023-04-23T04:42:15;10.70;95.10
49124;DHT22;48506;48.202;16.274;2023-04-23T04:44:42;10.80;95.10
49124;DHT22;48506;48.202;16.274;2023-04-23T04:47:09;10.80;95.20
49124;DHT22;48506;48.202;16.274;2023-04-23T04:49:35;10.90;95.20
49124;DHT22;48506;48.202;16.274;2023-04-23T04:52:01;11.00;95.20
49124;DHT22;48506;48.202;16.274;2023-04-23T04:54:27;11.00;95.10
49124;DHT22;48506;48.202;16.274;2023-04-23T04:56:53;11.10;95.00
49124;DHT22;48506;48.202;16.274;2023-04-23T04:59:19;11.10;95.10
49124;DHT22;48506;48.202;16.274;2023-04-23T05:01:45;11.30;95.20
49124;DHT22;48506;48.202;16.274;2023-04-23T05:04:12;11.40;95.10
49124;DHT22;48506;48.202;16.274;2023-04-23T05:06:38;11.40;95.00
49124;DHT22;48506;48.202;16.274;2023-04-23T05:09:04;11.50;94.90
49124;DHT22;48506;48.202;16.274;2023-04-23T05:11:31;11.70;94.90
49124;DHT22;48506;48.202;16.274;2023-04-23T05:13:57;11.80;94.70
49124;DHT22;48506;48.202;16.274;2023-04-23T05:16:23;11.90;94.60
49124;DHT22;48506;48.202;16.274;2023-04-23T05:18:49;12.00;94.40
49124;DHT22;48506;48.202;16.274;2023-04-23T05:21:15;12.10;94.20
49124;DHT22;48506;48.202;16.274;2023-04-23T05:23:41;12.10;94.10
49124;DHT22;48506;48.202;16.274;2023-04-23T05:26:07;12.20;94.00
49124;DHT22;48506;48.202;16.274;2023-04-23T05:28:33;12.30;94.00
49124;DHT22;48506;48.202;16.274;2023-04-23T05:30:59;12.40;93.80
49124;DHT22;48506;48.202;16.274;2023-04-23T05:33:25;12.60;93.70
49124;DHT22;48506;48.202;16.274;2023-04-23T05:35:51;12.70;93.50
49124;DHT22;48506;48.202;16.274;2023-04-23T05:38:17;12.80;93.30
49124;DHT22;48506;48.202;16.274;2023-04-23T05:40:43;13.00;93.30
49124;DHT22;48506;48.202;16.274;2023-04-23T05:43:09;13.10;92.80
49124;DHT22;48506;48.202;16.274;2023-04-23T05:45:37;13.20;92.70
49124;DHT22;48506;48.202;16.274;2023-04-23T05:48:03;13.30;92.60
49124;DHT22;48506;48.202;16.274;2023-04-23T05:50:29;13.40;92.40
49124;DHT22;48506;48.202;16.274;2023-04-23T05:52:55;13.60;92.30
49124;DHT22;48506;48.202;16.274;2023-04-23T05:55:21;13.70;91.90
49124;DHT22;48506;48.202;16.274;2023-04-23T05:57:51;13.80;91.70
49124;DHT22;48506;48.202;16.274;2023-04-23T06:00:17;14.00;91.80
49124;DHT22;48506;48.202;16.274;2023-04-23T06:02:43;14.20;91.50
49124;DHT22;48506;48.202;16.274;2023-04-23T06:05:09;14.40;91.30
49124;DHT22;48506;48.202;16.274;2023-04-23T06:07:35;14.50;91.00
49124;DHT22;48506;48.202;16.274;2023-04-23T06:10:03;14.70;90.80
49124;DHT22;48506;48.202;16.274;2023-04-23T06:12:30;14.80;90.60
49124;DHT22;48506;48.202;16.274;2023-04-23T06:14:57;14.90;90.20
49124;DHT22;48506;48.202;16.274;2023-04-23T06:17:24;15.10;90.10
49124;DHT22;48506;48.202;16.274;2023-04-23T06:19:50;15.30;90.20
49124;DHT22;48506;48.202;16.274;2023-04-23T06:22:16;15.40;89.00
49124;DHT22;48506;48.202;16.274;2023-04-23T06:24:43;15.50;88.20
49124;DHT22;48506;48.202;16.274;2023-04-23T06:27:11;15.60;88.60
49124;DHT22;48506;48.202;16.274;2023-04-23T06:29:38;15.80;88.50
49124;DHT22;48506;48.202;16.274;2023-04-23T06:32:04;16.00;87.60
49124;DHT22;48506;48.202;16.274;2023-04-23T06:34:30;16.10;87.60
49124;DHT22;48506;48.202;16.274;2023-04-23T06:36:56;16.20;87.30
49124;DHT22;48506;48.202;16.274;2023-04-23T06:39:21;16.40;87.30
49124;DHT22;48506;48.202;16.274;2023-04-23T06:41:47;16.50;85.70
49124;DHT22;48506;48.202;16.274;2023-04-23T06:44:14;16.60;84.70
49124;DHT22;48506;48.202;16.274;2023-04-23T06:46:40;16.70;84.10
49124;DHT22;48506;48.202;16.274;2023-04-23T06:49:06;16.70;84.50
49124;DHT22;48506;48.202;16.274;2023-04-23T06:51:34;16.90;83.30
49124;DHT22;48506;48.202;16.274;2023-04-23T06:54:00;17.00;83.10
49124;DHT22;48506;48.202;16.274;2023-04-23T06:56:26;17.20;82.00
49124;DHT22;48506;48.202;16.274;2023-04-23T06:58:52;17.30;82.10
49124;DHT22;48506;48.202;16.274;2023-04-23T07:01:18;17.30;82.30
49124;DHT22;48506;48.202;16.274;2023-04-23T07:03:44;17.40;81.60
49124;DHT22;48506;48.202;16.274;2023-04-23T07:06:16;17.60;82.90
49124;DHT22;48506;48.202;16.274;2023-04-23T07:08:43;17.90;82.50
49124;DHT22;48506;48.202;16.274;2023-04-23T07:11:10;18.10;80.00
49124;DHT22;48506;48.202;16.274;2023-04-23T07:13:37;18.20;80.20
49124;DHT22;48506;48.202;16.274;2023-04-23T07:16:03;18.30;80.10
49124;DHT22;48506;48.202;16.274;2023-04-23T07:18:31;18.40;79.40
49124;DHT22;48506;48.202;16.274;2023-04-23T07:20:57;18.50;79.50
49124;DHT22;48506;48.202;16.274;2023-04-23T07:23:23;18.70;78.80
49124;DHT22;48506;48.202;16.274;2023-04-23T07:25:49;18.80;79.20
49124;DHT22;48506;48.202;16.274;2023-04-23T07:28:15;19.00;77.90
49124;DHT22;48506;48.202;16.274;2023-04-23T07:30:41;19.20;78.40
49124;DHT22;48506;48.202;16.274;2023-04-23T07:33:07;19.40;77.00
49124;DHT22;48506;48.202;16.274;2023-04-23T07:35:33;19.60;75.70
49124;DHT22;48506;48.202;16.274;2023-04-23T07:38:00;19.70;75.60
49124;DHT22;48506;48.202;16.274;2023-04-23T07:40:27;19.90;75.90
49124;DHT22;48506;48.202;16.274;2023-04-23T07:42:54;20.00;76.80
49124;DHT22;48506;48.202;16.274;2023-04-23T07:45:21;20.20;74.80
49124;DHT22;48506;48.202;16.274;2023-04-23T07:47:48;20.20;74.80
49124;DHT22;48506;48.202;16.274;2023-04-23T07:50:14;20.30;73.60
49124;DHT22;48506;48.202;16.274;2023-04-23T07:52:40;20.40;74.00
49124;DHT22;48506;48.202;16.274;2023-04-23T07:55:07;20.40;73.40
49124;DHT22;48506;48.202;16.274;2023-04-23T07:57:33;20.60;74.00
49124;DHT22;48506;48.202;16.274;2023-04-23T07:59:59;20.70;74.10
49124;DHT22;48506;48.202;16.274;2023-04-23T08:02:26;20.90;74.40
49124;DHT22;48506;48.202;16.274;2023-04-23T08:04:53;21.10;74.00
49124;DHT22;48506;48.202;16.274;2023-04-23T08:07:19;21.30;72.90
49124;DHT22;48506;48.202;16.274;2023-04-23T08:09:45;21.30;71.60
49124;DHT22;48506;48.202;16.274;2023-04-23T08:12:11;21.20;70.50
49124;DHT22;48506;48.202;16.274;2023-04-23T08:14:37;21.20;72.00
49124;DHT22;48506;48.202;16.274;2023-04-23T08:17:03;21.20;72.30
49124;DHT22;48506;48.202;16.274;2023-04-23T08:19:29;21.20;71.70
49124;DHT22;48506;48.202;16.274;2023-04-23T08:21:58;21.20;72.50
49124;DHT22;48506;48.202;16.274;2023-04-23T08:24:24;21.20;70.70
49124;DHT22;48506;48.202;16.274;2023-04-23T08:26:51;21.10;71.30
49124;DHT22;48506;48.202;16.274;2023-04-23T08:29:18;21.20;71.10
49124;DHT22;48506;48.202;16.274;2023-04-23T08:31:44;21.40;71.10
49124;DHT22;48506;48.202;16.274;2023-04-23T08:34:11;21.50;69.90
49124;DHT22;48506;48.202;16.274;2023-04-23T08:36:37;21.50;71.00
49124;DHT22;48506;48.202;16.274;2023-04-23T08:39:04;21.40;70.20
49124;DHT22;48506;48.202;16.274;2023-04-23T08:41:39;21.50;70.20
49124;DHT22;48506;48.202;16.274;2023-04-23T08:44:24;21.70;69.90
49124;DHT22;48506;48.202;16.274;2023-04-23T08:46:53;21.90;70.20
49124;DHT22;48506;48.202;16.274;2023-04-23T08:49:19;22.10;69.80
49124;DHT22;48506;48.202;16.274;2023-04-23T08:51:58;22.20;68.60
49124;DHT22;48506;48.202;16.274;2023-04-23T08:54:28;22.40;69.10
49124;DHT22;48506;48.202;16.274;2023-04-23T08:56:57;22.60;69.60
49124;DHT22;48506;48.202;16.274;2023-04-23T08:59:29;22.80;68.60
49124;DHT22;48506;48.202;16.274;2023-04-23T09:01:56;22.90;67.90
49124;DHT22;48506;48.202;16.274;2023-04-23T09:04:26;23.00;67.60
49124;DHT22;48506;48.202;16.274;2023-04-23T09:06:52;23.00;67.30
49124;DHT22;48506;48.202;16.274;2023-04-23T09:09:20;23.20;67.20
49124;DHT22;48506;48.202;16.274;2023-04-23T09:11:49;23.30;66.00
49124;DHT22;48506;48.202;16.274;2023-04-23T09:14:15;23.50;67.30
49124;DHT22;48506;48.202;16.274;2023-04-23T09:16:42;23.70;66.10
49124;DHT22;48506;48.202;16.274;2023-04-23T09:19:10;23.80;65.00
49124;DHT22;48506;48.202;16.274;2023-04-23T09:21:38;23.70;64.90
49124;DHT22;48506;48.202;16.274;2023-04-23T09:24:08;23.80;66.80
49124;DHT22;48506;48.202;16.274;2023-04-23T09:26:46;24.00;65.60
49124;DHT22;48506;48.202;16.274;2023-04-23T09:29:21;24.10;64.20
49124;DHT22;48506;48.202;16.274;2023-04-23T09:31:50;24.20;63.80
49124;DHT22;48506;48.202;16.274;2023-04-23T09:34:21;24.20;64.50
49124;DHT22;48506;48.202;16.274;2023-04-23T09:36:49;24.20;64.10
49124;DHT22;48506;48.202;16.274;2023-04-23T09:39:17;24.20;63.70
49124;DHT22;48506;48.202;16.274;2023-04-23T09:41:44;24.30;63.50
49124;DHT22;48506;48.202;16.274;2023-04-23T09:44:17;24.20;63.70
49124;DHT22;48506;48.202;16.274;2023-04-23T09:46:44;24.00;62.60
49124;DHT22;48506;48.202;16.274;2023-04-23T09:49:11;23.90;62.90
49124;DHT22;48506;48.202;16.274;2023-04-23T09:51:43;23.80;64.40
49124;DHT22;48506;48.202;16.274;2023-04-23T09:54:19;23.80;64.80
49124;DHT22;48506;48.202;16.274;2023-04-23T09:56:52;23.90;64.60
49124;DHT22;48506;48.202;16.274;2023-04-23T09:59:27;24.20;64.40
49124;DHT22;48506;48.202;16.274;2023-04-23T10:01:54;24.40;62.80
49124;DHT22;48506;48.202;16.274;2023-04-23T10:04:21;24.80;62.80
49124;DHT22;48506;48.202;16.274;2023-04-23T10:07:02;25.00;61.70
49124;DHT22;48506;48.202;16.274;2023-04-23T10:09:29;25.00;62.10
49124;DHT22;48506;48.202;16.274;2023-04-23T10:11:58;25.20;62.70
49124;DHT22;48506;48.202;16.274;2023-04-23T10:14:25;25.50;61.10
49124;DHT22;48506;48.202;16.274;2023-04-23T10:19:23;25.90;59.50
49124;DHT22;48506;48.202;16.274;2023-04-23T10:21:54;26.20;59.20
49124;DHT22;48506;48.202;16.274;2023-04-23T10:24:26;26.20;59.20
49124;DHT22;48506;48.202;16.274;2023-04-23T10:26:57;26.30;58.90
49124;DHT22;48506;48.202;16.274;2023-04-23T10:29:29;26.40;59.60
49124;DHT22;48506;48.202;16.274;2023-04-23T10:32:00;26.50;58.80
49124;DHT22;48506;48.202;16.274;2023-04-23T10:34:27;26.50;58.60
49124;DHT22;48506;48.202;16.274;2023-04-23T10:36:54;26.60;58.90
49124;DHT22;48506;48.202;16.274;2023-04-23T10:39:23;26.60;57.90
49124;DHT22;48506;48.202;16.274;2023-04-23T10:41:51;26.70;59.50
49124;DHT22;48506;48.202;16.274;2023-04-23T10:44:19;26.80;58.50
49124;DHT22;48506;48.202;16.274;2023-04-23T10:46:52;26.90;58.40
49124;DHT22;48506;48.202;16.274;2023-04-23T10:49:19;26.80;58.80
49124;DHT22;48506;48.202;16.274;2023-04-23T10:51:47;26.70;58.10
49124;DHT22;48506;48.202;16.274;2023-04-23T10:54:14;27.10;58.60
49124;DHT22;48506;48.202;16.274;2023-04-23T10:56:42;27.40;58.10
49124;DHT22;48506;48.202;16.274;2023-04-23T10:59:21;27.60;57.20
49124;DHT22;48506;48.202;16.274;2023-04-23T11:01:49;27.70;56.20
49124;DHT22;48506;48.202;16.274;2023-04-23T11:04:22;27.60;56.20
49124;DHT22;48506;48.202;16.274;2023-04-23T11:06:52;27.90;57.60
49124;DHT22;48506;48.202;16.274;2023-04-23T11:14:51;28.80;55.20
49124;DHT22;48506;48.202;16.274;2023-04-23T11:20:07;29.30;53.80
49124;DHT22;48506;48.202;16.274;2023-04-23T11:22:36;28.90;51.80
49124;DHT22;48506;48.202;16.274;2023-04-23T11:25:03;28.50;51.10
49124;DHT22;48506;48.202;16.274;2023-04-23T11:27:32;28.30;54.10
49124;DHT22;48506;48.202;16.274;2023-04-23T11:29:59;28.50;54.30
49124;DHT22;48506;48.202;16.274;2023-04-23T11:32:27;28.90;53.00
49124;DHT22;48506;48.202;16.274;2023-04-23T11:34:53;29.00;52.50
49124;DHT22;48506;48.202;16.274;2023-04-23T11:37:19;28.80;52.90
49124;DHT22;48506;48.202;16.274;2023-04-23T11:39:46;28.70;54.70
49124;DHT22;48506;48.202;16.274;2023-04-23T11:42:14;28.50;53.60
49124;DHT22;48506;48.202;16.274;2023-04-23T11:44:42;28.60;53.70
49124;DHT22;48506;48.202;16.274;2023-04-23T11:47:10;28.70;52.90
49124;DHT22;48506;48.202;16.274;2023-04-23T11:49:39;28.80;51.20
49124;DHT22;48506;48.202;16.274;2023-04-23T11:52:08;28.50;52.40
49124;DHT22;48506;48.202;16.274;2023-04-23T11:54:35;28.20;51.10
49124;DHT22;48506;48.202;16.274;2023-04-23T11:57:02;27.80;53.00
49124;DHT22;48506;48.202;16.274;2023-04-23T11:59:30;27.50;52.10
49124;DHT22;48506;48.202;16.274;2023-04-23T12:01:58;27.10;52.50
49124;DHT22;48506;48.202;16.274;2023-04-23T12:04:26;26.90;53.30
49124;DHT22;48506;48.202;16.274;2023-04-23T12:06:53;26.80;52.90
49124;DHT22;48506;48.202;16.274;2023-04-23T12:09:23;26.80;53.80
49124;DHT22;48506;48.202;16.274;2023-04-23T12:11:51;26.70;52.90
49124;DHT22;48506;48.202;16.274;2023-04-23T12:14:19;26.90;54.40
49124;DHT22;48506;48.202;16.274;2023-04-23T12:16:46;26.80;54.10
49124;DHT22;48506;48.202;16.274;2023-04-23T12:19:19;27.00;54.00
49124;DHT22;48506;48.202;16.274;2023-04-23T12:21:52;27.40;54.50
49124;DHT22;48506;48.202;16.274;2023-04-23T12:24:28;27.90;54.50
49124;DHT22;48506;48.202;16.274;2023-04-23T12:26:58;28.10;54.90
49124;DHT22;48506;48.202;16.274;2023-04-23T12:29:27;28.30;54.50
49124;DHT22;48506;48.202;16.274;2023-04-23T12:31:58;28.20;52.80
49124;DHT22;48506;48.202;16.274;2023-04-23T12:34:24;27.90;53.50
49124;DHT22;48506;48.202;16.274;2023-04-23T12:36:54;27.80;53.10
49124;DHT22;48506;48.202;16.274;2023-04-23T12:39:31;27.70;53.70
49124;DHT22;48506;48.202;16.274;2023-04-23T12:42:04;27.80;52.40
49124;DHT22;48506;48.202;16.274;2023-04-23T12:44:35;27.70;53.60
49124;DHT22;48506;48.202;16.274;2023-04-23T12:47:08;27.70;52.30
49124;DHT22;48506;48.202;16.274;2023-04-23T12:49:40;27.60;52.30
49124;DHT22;48506;48.202;16.274;2023-04-23T12:52:10;27.70;52.20
49124;DHT22;48506;48.202;16.274;2023-04-23T12:54:39;27.70;52.70
49124;DHT22;48506;48.202;16.274;2023-04-23T12:57:08;27.80;52.90
49124;DHT22;48506;48.202;16.274;2023-04-23T12:59:36;27.80;53.00
49124;DHT22;48506;48.202;16.274;2023-04-23T13:02:03;27.80;52.60
49124;DHT22;48506;48.202;16.274;2023-04-23T13:04:32;27.90;52.20
49124;DHT22;48506;48.202;16.274;2023-04-23T13:07:00;27.90;50.80
49124;DHT22;48506;48.202;16.274;2023-04-23T13:09:28;27.70;49.90
49124;DHT22;48506;48.202;16.274;2023-04-23T13:11:56;27.60;53.30
49124;DHT22;48506;48.202;16.274;2023-04-23T13:14:22;27.70;53.40
49124;DHT22;48506;48.202;16.274;2023-04-23T13:16:49;27.70;51.90
49124;DHT22;48506;48.202;16.274;2023-04-23T13:19:15;27.70;51.70
49124;DHT22;48506;48.202;16.274;2023-04-23T13:21:44;27.70;51.60
49124;DHT22;48506;48.202;16.274;2023-04-23T13:24:10;27.70;52.30
49124;DHT22;48506;48.202;16.274;2023-04-23T13:26:36;27.50;51.50
49124;DHT22;48506;48.202;16.274;2023-04-23T13:29:04;27.30;51.50
49124;DHT22;48506;48.202;16.274;2023-04-23T13:31:30;27.10;50.90
49124;DHT22;48506;48.202;16.274;2023-04-23T13:33:57;27.10;51.70
49124;DHT22;48506;48.202;16.274;2023-04-23T13:36:24;27.10;51.40
49124;DHT22;48506;48.202;16.274;2023-04-23T13:38:50;27.00;51.20
49124;DHT22;48506;48.202;16.274;2023-04-23T13:41:16;26.90;52.30
49124;DHT22;48506;48.202;16.274;2023-04-23T13:43:42;26.90;51.40
49124;DHT22;48506;48.202;16.274;2023-04-23T13:46:08;26.80;51.50
49124;DHT22;48506;48.202;16.274;2023-04-23T13:48:34;26.70;51.10
49124;DHT22;48506;48.202;16.274;2023-04-23T13:51:01;26.60;52.60
49124;DHT22;48506;48.202;16.274;2023-04-23T13:53:27;26.60;52.30
49124;DHT22;48506;48.202;16.274;2023-04-23T13:55:54;26.40;51.00
49124;DHT22;48506;48.202;16.274;2023-04-23T13:58:22;26.20;51.30
49124;DHT22;48506;48.202;16.274;2023-04-23T14:00:49;26.10;52.20
49124;DHT22;48506;48.202;16.274;2023-04-23T14:03:15;26.00;51.90
49124;DHT22;48506;48.202;16.274;2023-04-23T14:05:42;25.90;51.60
49124;DHT22;48506;48.202;16.274;2023-04-23T14:08:09;25.80;52.50
49124;DHT22;48506;48.202;16.274;2023-04-23T14:10:37;25.60;52.70
49124;DHT22;48506;48.202;16.274;2023-04-23T14:13:04;25.50;53.30
49124;DHT22;48506;48.202;16.274;2023-04-23T14:15:30;25.50;52.50
49124;DHT22;48506;48.202;16.274;2023-04-23T14:17:56;25.40;52.00
49124;DHT22;48506;48.202;16.274;2023-04-23T14:20:23;25.40;53.50
49124;DHT22;48506;48.202;16.274;2023-04-23T14:22:54;25.40;52.50
49124;DHT22;48506;48.202;16.274;2023-04-23T14:25:44;25.30;52.80
49124;DHT22;48506;48.202;16.274;2023-04-23T14:28:27;25.20;52.60
49124;DHT22;48506;48.202;16.274;2023-04-23T14:30:56;25.10;53.70
49124;DHT22;48506;48.202;16.274;2023-04-23T14:33:22;25.00;52.80
49124;DHT22;48506;48.202;16.274;2023-04-23T14:35:50;24.80;52.90
49124;DHT22;48506;48.202;16.274;2023-04-23T14:38:17;24.80;52.90
49124;DHT22;48506;48.202;16.274;2023-04-23T14:40:44;24.70;53.20
49124;DHT22;48506;48.202;16.274;2023-04-23T14:43:10;24.70;52.90
49124;DHT22;48506;48.202;16.274;2023-04-23T14:45:36;24.60;53.10
49124;DHT22;48506;48.202;16.274;2023-04-23T14:48:02;24.60;54.30
49124;DHT22;48506;48.202;16.274;2023-04-23T14:50:29;24.60;53.50
49124;DHT22;48506;48.202;16.274;2023-04-23T14:52:55;24.40;53.20
49124;DHT22;48506;48.202;16.274;2023-04-23T14:55:23;24.40;53.90
49124;DHT22;48506;48.202;16.274;2023-04-23T14:57:50;24.30;53.60
49124;DHT22;48506;48.202;16.274;2023-04-23T15:00:17;24.30;53.50
49124;DHT22;48506;48.202;16.274;2023-04-23T15:02:43;24.20;53.70
49124;DHT22;48506;48.202;16.274;2023-04-23T15:05:12;24.10;53.80
49124;DHT22;48506;48.202;16.274;2023-04-23T15:07:40;24.10;53.80
49124;DHT22;48506;48.202;16.274;2023-04-23T15:10:08;24.20;53.70
49124;DHT22;48506;48.202;16.274;2023-04-23T15:17:51;24.30;53.70
49124;DHT22;48506;48.202;16.274;2023-04-23T15:20:17;24.40;53.70
49124;DHT22;48506;48.202;16.274;2023-04-23T15:22:44;24.40;54.20
49124;DHT22;48506;48.202;16.274;2023-04-23T15:25:13;24.40;52.90
49124;DHT22;48506;48.202;16.274;2023-04-23T15:27:41;24.30;52.90
49124;DHT22;48506;48.202;16.274;2023-04-23T15:30:07;24.20;53.70
49124;DHT22;48506;48.202;16.274;2023-04-23T15:32:34;24.20;53.90